sensor_id;sensor_type;location;lat;lon;timestamp;pressure;altitude;pressure_sealevel;temperature;humidity
71476;BME280;59286;59.274;17.974;2024-01-10T00:02:13;102490.31;;;-1.88;100.00
71476;BME280;59286;59.274;17.974;2024-01-10T00:04:38;102492.56;;;-1.85;100.00
71476;BME280;59286;59.274;17.974;2024-01-10T00:07:04;102479.25;;;-1.89;100.00
71476;BME280;59286;59.274;17.974;2024-01-10T00:09:30;102469.91;;;-1.90;100.00
71476;BME280;59286;59.274;17.974;2024-01-10T00:11:55;102472.16;;;-1.87;100.00
71476;BME280;59286;59.274;17.974;2024-01-10T00:14:20;102471.03;;;-1.84;100.00
71476;BME280;59286;59.274;17.974;2024-01-10T00:16:46;102483.84;;;-1.76;100.00
71476;BME280;59286;59.274;17.974;2024-01-10T00:19:11;102478.06;;;-1.78;100.00
71476;BME280;59286;59.274;17.974;2024-01-10T00:21:36;102472.94;;;-1.78;100.00
71476;BME280;59286;59.274;17.974;2024-01-10T00:24:02;102480.16;;;-1.74;100.00
71476;BME280;59286;59.274;17.974;2024-01-10T00:26:27;102475.31;;;-1.69;100.00
71476;BME280;59286;59.274;17.974;2024-01-10T00:28:52;102475.09;;;-1.59;100.00
71476;BME280;59286;59.274;17.974;2024-01-10T00:31:18;102463.06;;;-1.59;100.00
71476;BME280;59286;59.274;17.974;2024-01-10T00:33:43;102460.59;;;-1.52;100.00
71476;BME280;59286;59.274;17.974;2024-01-10T00:36:08;102467.19;;;-1.50;100.00
71476;BME280;59286;59.274;17.974;2024-01-10T00:38:33;102455.13;;;-1.49;100.00
71476;BME280;59286;59.274;17.974;2024-01-10T00:40:59;102458.00;;;-1.44;100.00
71476;BME280;59286;59.274;17.974;2024-01-10T00:43:24;102473.97;;;-1.34;100.00
71476;BME280;59286;59.274;17.974;2024-01-10T00:45:50;102465.94;;;-1.31;100.00
71476;BME280;59286;59.274;17.974;2024-01-10T00:48:15;102469.25;;;-1.23;100.00
71476;BME280;59286;59.274;17.974;2024-01-10T00:50:42;102494.59;;;-1.12;100.00
71476;BME280;59286;59.274;17.974;2024-01-10T00:53:09;102482.53;;;-1.11;100.00
71476;BME280;59286;59.274;17.974;2024-01-10T00:55:34;102484.47;;;-1.13;100.00
71476;BME280;59286;59.274;17.974;2024-01-10T00:58:00;102478.88;;;-1.17;100.00
71476;BME280;59286;59.274;17.974;2024-01-10T01:00:25;102479.09;;;-1.26;100.00
71476;BME280;59286;59.274;17.974;2024-01-10T01:02:51;102488.06;;;-1.22;100.00
71476;BME280;59286;59.274;17.974;2024-01-10T01:05:17;102486.00;;;-1.27;100.00
71476;BME280;59286;59.274;17.974;2024-01-10T01:07:42;102476.06;;;-1.30;100.00
71476;BME280;59286;59.274;17.974;2024-01-10T01:10:08;102485.53;;;-1.30;100.00
71476;BME280;59286;59.274;17.974;2024-01-10T01:12:34;102482.88;;;-1.37;100.00
71476;BME280;59286;59.274;17.974;2024-01-10T01:14:59;102480.16;;;-1.43;100.00
71476;BME280;59286;59.274;17.974;2024-01-10T01:17:24;102484.50;;;-1.44;100.00
71476;BME280;59286;59.274;17.974;2024-01-10T01:19:49;102490.44;;;-1.43;100.00
71476;BME280;59286;59.274;17.974;2024-01-10T01:22:15;102473.13;;;-1.49;100.00
71476;BME280;59286;59.274;17.974;2024-01-10T01:24:40;102481.31;;;-1.46;100.00
71476;BME280;59286;59.274;17.974;2024-01-10T01:27:06;102469.94;;;-1.51;100.00
71476;BME280;59286;59.274;17.974;2024-01-10T01:29:31;102482.59;;;-1.50;100.00
71476;BME280;59286;59.274;17.974;2024-01-10T01:31:56;102489.34;;;-1.49;100.00
71476;BME280;59286;59.274;17.974;2024-01-10T01:34:22;102474.25;;;-1.52;100.00
71476;BME280;59286;59.274;17.974;2024-01-10T01:36:47;102488.25;;;-1.54;100.00
71476;BME280;59286;59.274;17.974;2024-01-10T01:39:13;102503.50;;;-1.53;100.00
71476;BME280;59286;59.274;17.974;2024-01-10T01:41:41;102503.56;;;-1.61;100.00
71476;BME280;59286;59.274;17.974;2024-01-10T01:44:06;102493.75;;;-1.65;100.00
71476;BME280;59286;59.274;17.974;2024-01-10T01:46:32;102500.66;;;-1.66;100.00
71476;BME280;59286;59.274;17.974;2024-01-10T01:48:58;102495.41;;;-1.72;100.00
71476;BME280;59286;59.274;17.974;2024-01-10T01:51:25;102494.75;;;-1.74;100.00
71476;BME280;59286;59.274;17.974;2024-01-10T01:53:52;102491.56;;;-1.84;100.00
71476;BME280;59286;59.274;17.974;2024-01-10T01:56:18;102499.91;;;-1.82;100.00
71476;BME280;59286;59.274;17.974;2024-01-10T01:58:45;102494.50;;;-1.87;100.00
71476;BME280;59286;59.274;17.974;2024-01-10T02:01:11;102498.97;;;-1.81;100.00
71476;BME280;59286;59.274;17.974;2024-01-10T02:03:36;102498.34;;;-1.83;100.00
71476;BME280;59286;59.274;17.974;2024-01-10T02:06:02;102497.53;;;-1.84;100.00
71476;BME280;59286;59.274;17.974;2024-01-10T02:08:29;102486.31;;;-1.91;100.00
71476;BME280;59286;59.274;17.974;2024-01-10T02:10:56;102481.34;;;-1.92;100.00
71476;BME280;59286;59.274;17.974;2024-01-10T02:13:22;102504.59;;;-1.86;100.00
71476;BME280;59286;59.274;17.974;2024-01-10T02:15:47;102504.47;;;-1.92;100.00
71476;BME280;59286;59.274;17.974;2024-01-10T02:18:12;102491.16;;;-1.96;100.00
71476;BME280;59286;59.274;17.974;2024-01-10T02:20:39;102506.88;;;-1.91;100.00
71476;BME280;59286;59.274;17.974;2024-01-10T02:23:04;102506.06;;;-1.91;100.00
71476;BME280;59286;59.274;17.974;2024-01-10T02:25:30;102484.22;;;-1.96;100.00
71476;BME280;59286;59.274;17.974;2024-01-10T02:27:55;102489.06;;;-1.92;100.00
71476;BME280;59286;59.274;17.974;2024-01-10T02:30:20;102494.00;;;-1.83;100.00
71476;BME280;59286;59.274;17.974;2024-01-10T02:32:46;102486.78;;;-1.87;100.00
71476;BME280;59286;59.274;17.974;2024-01-10T02:35:11;102504.28;;;-1.83;100.00
71476;BME280;59286;59.274;17.974;2024-01-10T02:37:36;102507.81;;;-1.84;100.00
71476;BME280;59286;59.274;17.974;2024-01-10T02:40:02;102492.38;;;-1.84;100.00
71476;BME280;59286;59.274;17.974;2024-01-10T02:42:27;102498.00;;;-1.80;100.00
71476;BME280;59286;59.274;17.974;2024-01-10T02:44:53;102488.19;;;-1.77;100.00
71476;BME280;59286;59.274;17.974;2024-01-10T02:47:19;102483.34;;;-1.72;100.00
71476;BME280;59286;59.274;17.974;2024-01-10T02:49:44;102484.00;;;-1.70;100.00
71476;BME280;59286;59.274;17.974;2024-01-10T02:52:09;102488.44;;;-1.64;100.00
71476;BME280;59286;59.274;17.974;2024-01-10T02:54:35;102486.03;;;-1.57;100.00
71476;BME280;59286;59.274;17.974;2024-01-10T02:57:00;102489.50;;;-1.50;100.00
71476;BME280;59286;59.274;17.974;2024-01-10T02:59:25;102479.06;;;-1.49;100.00
71476;BME280;59286;59.274;17.974;2024-01-10T03:01:51;102485.16;;;-1.42;100.00
71476;BME280;59286;59.274;17.974;2024-01-10T03:04:16;102474.22;;;-1.44;100.00
71476;BME280;59286;59.274;17.974;2024-01-10T03:06:41;102471.94;;;-1.39;100.00
71476;BME280;59286;59.274;17.974;2024-01-10T03:09:06;102481.41;;;-1.39;100.00
71476;BME280;59286;59.274;17.974;2024-01-10T03:11:32;102482.22;;;-1.39;100.00
71476;BME280;59286;59.274;17.974;2024-01-10T03:14:18;102488.81;;;-1.36;100.00
71476;BME280;59286;59.274;17.974;2024-01-10T03:16:43;102468.28;;;-1.44;100.00
71476;BME280;59286;59.274;17.974;2024-01-10T03:19:08;102474.34;;;-1.37;100.00
71476;BME280;59286;59.274;17.974;2024-01-10T03:21:34;102474.34;;;-1.37;100.00
71476;BME280;59286;59.274;17.974;2024-01-10T03:24:00;102470.50;;;-1.41;100.00
71476;BME280;59286;59.274;17.974;2024-01-10T03:26:26;102470.50;;;-1.41;100.00
71476;BME280;59286;59.274;17.974;2024-01-10T03:28:52;102468.09;;;-1.43;100.00
71476;BME280;59286;59.274;17.974;2024-01-10T03:31:18;102468.75;;;-1.41;100.00
71476;BME280;59286;59.274;17.974;2024-01-10T03:33:44;102463.13;;;-1.44;100.00
71476;BME280;59286;59.274;17.974;2024-01-10T03:36:12;102459.94;;;-1.46;100.00
71476;BME280;59286;59.274;17.974;2024-01-10T03:38:38;102465.88;;;-1.46;100.00
71476;BME280;59286;59.274;17.974;2024-01-10T03:41:03;102463.81;;;-1.50;100.00
71476;BME280;59286;59.274;17.974;2024-01-10T03:43:29;102469.28;;;-1.53;100.00
71476;BME280;59286;59.274;17.974;2024-01-10T03:45:54;102475.56;;;-1.56;100.00
71476;BME280;59286;59.274;17.974;2024-01-10T03:48:20;102469.16;;;-1.60;100.00
71476;BME280;59286;59.274;17.974;2024-01-10T03:50:45;102462.28;;;-1.67;100.00
71476;BME280;59286;59.274;17.974;2024-01-10T03:53:10;102455.19;;;-1.65;100.00
71476;BME280;59286;59.274;17.974;2024-01-10T03:55:36;102460.50;;;-1.67;100.00
71476;BME280;59286;59.274;17.974;2024-01-10T03:58:01;102458.13;;;-1.68;100.00
71476;BME280;59286;59.274;17.974;2024-01-10T04:00:26;102448.31;;;-1.73;100.00
71476;BME280;59286;59.274;17.974;2024-01-10T04:02:52;102453.94;;;-1.69;100.00
71476;BME280;59286;59.274;17.974;2024-01-10T04:05:18;102443.72;;;-1.77;100.00
71476;BME280;59286;59.274;17.974;2024-01-10T04:07:44;102441.47;;;-1.80;100.00
71476;BME280;59286;59.274;17.974;2024-01-10T04:10:10;102457.19;;;-1.75;100.00
71476;BME280;59286;59.274;17.974;2024-01-10T04:12:37;102446.09;;;-1.76;100.00
71476;BME280;59286;59.274;17.974;2024-01-10T04:15:05;102441.47;;;-1.80;100.00
71476;BME280;59286;59.274;17.974;2024-01-10T04:17:31;102424.00;;;-1.85;100.00
71476;BME280;59286;59.274;17.974;2024-01-10T04:19:57;102438.25;;;-1.82;100.00
71476;BME280;59286;59.274;17.974;2024-01-10T04:22:26;102433.47;;;-1.85;100.00
71476;BME280;59286;59.274;17.974;2024-01-10T04:24:52;102441.13;;;-1.77;100.00
71476;BME280;59286;59.274;17.974;2024-01-10T04:27:17;102435.84;;;-1.84;100.00
71476;BME280;59286;59.274;17.974;2024-01-10T04:29:45;102438.25;;;-1.82;100.00
71476;BME280;59286;59.274;17.974;2024-01-10T04:32:10;102447.75;;;-1.83;100.00
71476;BME280;59286;59.274;17.974;2024-01-10T04:34:36;102434.94;;;-1.91;100.00
71476;BME280;59286;59.274;17.974;2024-01-10T04:37:01;102427.41;;;-1.92;100.00
71476;BME280;59286;59.274;17.974;2024-01-10T04:39:27;102431.25;;;-1.97;100.00
71476;BME280;59286;59.274;17.974;2024-01-10T04:41:52;102434.78;;;-1.98;100.00
71476;BME280;59286;59.274;17.974;2024-01-10T04:44:18;102432.84;;;-1.96;100.00
71476;BME280;59286;59.274;17.974;2024-01-10T04:46:43;102430.97;;;-2.02;100.00
71476;BME280;59286;59.274;17.974;2024-01-10T04:49:08;102428.41;;;-2.02;100.00
71476;BME280;59286;59.274;17.974;2024-01-10T04:51:34;102427.25;;;-1.99;100.00
71476;BME280;59286;59.274;17.974;2024-01-10T04:53:59;102424.03;;;-2.01;100.00
71476;BME280;59286;59.274;17.974;2024-01-10T04:56:25;102419.25;;;-2.04;100.00
71476;BME280;59286;59.274;17.974;2024-01-10T04:58:51;102418.91;;;-2.01;100.00
71476;BME280;59286;59.274;17.974;2024-01-10T05:01:16;102419.88;;;-2.02;100.00
71476;BME280;59286;59.274;17.974;2024-01-10T05:03:42;102414.91;;;-2.04;100.00
71476;BME280;59286;59.274;17.974;2024-01-10T05:06:07;102425.31;;;-1.97;100.00
71476;BME280;59286;59.274;17.974;2024-01-10T05:08:32;102419.22;;;-1.96;100.00
71476;BME280;59286;59.274;17.974;2024-01-10T05:10:58;102415.56;;;-2.02;100.00
71476;BME280;59286;59.274;17.974;2024-01-10T05:13:23;102419.38;;;-1.98;100.00
71476;BME280;59286;59.274;17.974;2024-01-10T05:15:48;102412.63;;;-1.99;100.00
71476;BME280;59286;59.274;17.974;2024-01-10T05:18:15;102396.31;;;-2.06;100.00
71476;BME280;59286;59.274;17.974;2024-01-10T05:20:40;102410.72;;;-1.97;100.00
71476;BME280;59286;59.274;17.974;2024-01-10T05:23:06;102406.53;;;-1.98;100.00
71476;BME280;59286;59.274;17.974;2024-01-10T05:25:31;102414.22;;;-1.98;100.00
71476;BME280;59286;59.274;17.974;2024-01-10T05:27:57;102399.34;;;-2.02;100.00
71476;BME280;59286;59.274;17.974;2024-01-10T05:30:22;102404.09;;;-1.91;100.00
71476;BME280;59286;59.274;17.974;2024-01-10T05:32:48;102408.13;;;-1.88;100.00
71476;BME280;59286;59.274;17.974;2024-01-10T05:35:13;102411.63;;;-1.89;100.00
71476;BME280;59286;59.274;17.974;2024-01-10T05:37:38;102414.84;;;-1.87;100.00
71476;BME280;59286;59.274;17.974;2024-01-10T05:40:04;102408.78;;;-1.94;100.00
71476;BME280;59286;59.274;17.974;2024-01-10T05:42:30;102410.72;;;-1.97;100.00
71476;BME280;59286;59.274;17.974;2024-01-10T05:44:57;102411.53;;;-1.96;100.00
71476;BME280;59286;59.274;17.974;2024-01-10T05:47:23;102405.56;;;-1.97;100.00
71476;BME280;59286;59.274;17.974;2024-01-10T05:49:48;102421.34;;;-2.00;100.00
71476;BME280;59286;59.274;17.974;2024-01-10T05:52:13;102416.19;;;-2.00;100.00
71476;BME280;59286;59.274;17.974;2024-01-10T05:54:39;102411.84;;;-1.99;100.00
71476;BME280;59286;59.274;17.974;2024-01-10T05:57:04;102408.63;;;-2.01;100.00
71476;BME280;59286;59.274;17.974;2024-01-10T05:59:29;102416.19;;;-2.00;100.00
71476;BME280;59286;59.274;17.974;2024-01-10T06:01:56;102414.56;;;-2.01;100.00
71476;BME280;59286;59.274;17.974;2024-01-10T06:04:21;102398.69;;;-2.04;100.00
71476;BME280;59286;59.274;17.974;2024-01-10T06:06:47;102411.66;;;-1.98;100.00
71476;BME280;59286;59.274;17.974;2024-01-10T06:09:12;102415.22;;;-1.99;100.00
71476;BME280;59286;59.274;17.974;2024-01-10T06:11:41;102417.78;;;-1.99;100.00
71476;BME280;59286;59.274;17.974;2024-01-10T06:14:07;102415.22;;;-1.99;100.00
71476;BME280;59286;59.274;17.974;2024-01-10T06:16:32;102403.03;;;-2.05;100.00
71476;BME280;59286;59.274;17.974;2024-01-10T06:18:57;102403.84;;;-2.04;100.00
71476;BME280;59286;59.274;17.974;2024-01-10T06:21:23;102407.50;;;-1.99;100.00
71476;BME280;59286;59.274;17.974;2024-01-10T06:23:48;102405.59;;;-2.05;100.00
71476;BME280;59286;59.274;17.974;2024-01-10T06:26:13;102406.41;;;-2.04;100.00
71476;BME280;59286;59.274;17.974;2024-01-10T06:28:39;102412.19;;;-2.02;100.00
71476;BME280;59286;59.274;17.974;2024-01-10T06:31:04;102412.97;;;-2.02;100.00
71476;BME280;59286;59.274;17.974;2024-01-10T06:33:29;102402.72;;;-2.10;100.00
71476;BME280;59286;59.274;17.974;2024-01-10T06:35:55;102405.31;;;-2.10;100.00
71476;BME280;59286;59.274;17.974;2024-01-10T06:38:20;102409.47;;;-2.09;100.00
71476;BME280;59286;59.274;17.974;2024-01-10T06:40:47;102399.88;;;-2.15;100.00
71476;BME280;59286;59.274;17.974;2024-01-10T06:43:14;102404.19;;;-2.15;100.00
71476;BME280;59286;59.274;17.974;2024-01-10T06:45:39;102413.66;;;-2.08;100.00
71476;BME280;59286;59.274;17.974;2024-01-10T06:48:05;102414.31;;;-2.14;100.00
71476;BME280;59286;59.274;17.974;2024-01-10T06:50:31;102396.69;;;-2.25;100.00
71476;BME280;59286;59.274;17.974;2024-01-10T06:52:57;102402.81;;;-2.26;100.00
71476;BME280;59286;59.274;17.974;2024-01-10T06:55:22;102410.34;;;-2.32;100.00
71476;BME280;59286;59.274;17.974;2024-01-10T06:57:49;102406.81;;;-2.31;100.00
71476;BME280;59286;59.274;17.974;2024-01-10T07:00:16;102408.25;;;-2.29;100.00
71476;BME280;59286;59.274;17.974;2024-01-10T07:02:43;102403.28;;;-2.30;100.00
71476;BME280;59286;59.274;17.974;2024-01-10T07:05:09;102405.19;;;-2.24;100.00
71476;BME280;59286;59.274;17.974;2024-01-10T07:07:34;102408.88;;;-2.27;100.00
71476;BME280;59286;59.274;17.974;2024-01-10T07:10:01;102402.34;;;-2.37;100.00
71476;BME280;59286;59.274;17.974;2024-01-10T07:12:26;102409.53;;;-2.33;100.00
71476;BME280;59286;59.274;17.974;2024-01-10T07:14:52;102389.03;;;-2.41;100.00
71476;BME280;59286;59.274;17.974;2024-01-10T07:17:17;102409.22;;;-2.30;100.00
71476;BME280;59286;59.274;17.974;2024-01-10T07:19:42;102399.09;;;-2.31;100.00
71476;BME280;59286;59.274;17.974;2024-01-10T07:22:08;102391.56;;;-2.33;100.00
71476;BME280;59286;59.274;17.974;2024-01-10T07:24:35;102401.81;;;-2.25;100.00
71476;BME280;59286;59.274;17.974;2024-01-10T07:27:01;102404.22;;;-2.23;100.00
71476;BME280;59286;59.274;17.974;2024-01-10T07:29:26;102406.63;;;-2.22;100.00
71476;BME280;59286;59.274;17.974;2024-01-10T07:31:51;102402.63;;;-2.24;100.00
71476;BME280;59286;59.274;17.974;2024-01-10T07:34:18;102405.03;;;-2.23;100.00
71476;BME280;59286;59.274;17.974;2024-01-10T07:36:43;102413.84;;;-2.17;100.00
71476;BME280;59286;59.274;17.974;2024-01-10T07:39:08;102406.97;;;-2.25;100.00
71476;BME280;59286;59.274;17.974;2024-01-10T07:41:34;102415.31;;;-2.23;100.00
71476;BME280;59286;59.274;17.974;2024-01-10T07:43:59;102420.38;;;-2.07;100.00
71476;BME280;59286;59.274;17.974;2024-01-10T07:46:25;102420.34;;;-1.99;100.00
71476;BME280;59286;59.274;17.974;2024-01-10T07:48:52;102419.69;;;-1.92;100.00
71476;BME280;59286;59.274;17.974;2024-01-10T07:51:17;102422.44;;;-1.94;100.00
71476;BME280;59286;59.274;17.974;2024-01-10T07:53:42;102426.69;;;-1.86;100.00
71476;BME280;59286;59.274;17.974;2024-01-10T07:56:08;102425.13;;;-1.87;100.00
71476;BME280;59286;59.274;17.974;2024-01-10T07:58:33;102422.72;;;-1.89;100.00
71476;BME280;59286;59.274;17.974;2024-01-10T08:00:58;102420.97;;;-1.88;100.00
71476;BME280;59286;59.274;17.974;2024-01-10T08:03:24;102413.38;;;-1.82;100.00
71476;BME280;59286;59.274;17.974;2024-01-10T08:05:49;102404.22;;;-1.84;100.00
71476;BME280;59286;59.274;17.974;2024-01-10T08:08:14;102403.53;;;-1.78;100.00
71476;BME280;59286;59.274;17.974;2024-01-10T08:10:42;102396.13;;;-1.73;100.00
71476;BME280;59286;59.274;17.974;2024-01-10T08:13:07;102388.59;;;-1.75;100.00
71476;BME280;59286;59.274;17.974;2024-01-10T08:15:32;102387.69;;;-1.59;100.00
71476;BME280;59286;59.274;17.974;2024-01-10T08:18:00;102393.44;;;-1.49;100.00
71476;BME280;59286;59.274;17.974;2024-01-10T08:20:28;102384.38;;;-1.45;100.00
71476;BME280;59286;59.274;17.974;2024-01-10T08:22:53;102391.41;;;-1.39;100.00
71476;BME280;59286;59.274;17.974;2024-01-10T08:25:18;102396.25;;;-1.36;100.00
71476;BME280;59286;59.274;17.974;2024-01-10T08:27:44;102405.81;;;-1.30;100.00
71476;BME280;59286;59.274;17.974;2024-01-10T08:30:10;102400.03;;;-1.32;100.00
71476;BME280;59286;59.274;17.974;2024-01-10T08:32:36;102401.31;;;-1.28;100.00
71476;BME280;59286;59.274;17.974;2024-01-10T08:35:02;102413.94;;;-1.19;100.00
71476;BME280;59286;59.274;17.974;2024-01-10T08:37:30;102425.34;;;-1.21;100.00
71476;BME280;59286;59.274;17.974;2024-01-10T08:39:55;102427.88;;;-1.13;100.00
71476;BME280;59286;59.274;17.974;2024-01-10T08:42:20;102420.78;;;-1.11;100.00
71476;BME280;59286;59.274;17.974;2024-01-10T08:44:46;102412.28;;;-1.12;100.00
71476;BME280;59286;59.274;17.974;2024-01-10T08:47:11;102412.22;;;-1.04;100.00
71476;BME280;59286;59.274;17.974;2024-01-10T08:49:36;102402.72;;;-1.03;100.00
71476;BME280;59286;59.274;17.974;2024-01-10T08:52:02;102385.16;;;-1.00;100.00
71476;BME280;59286;59.274;17.974;2024-01-10T08:54:27;102380.03;;;-1.00;100.00
71476;BME280;59286;59.274;17.974;2024-01-10T08:56:53;102377.97;;;-1.04;100.00
71476;BME280;59286;59.274;17.974;2024-01-10T08:59:18;102377.28;;;-0.98;100.00
71476;BME280;59286;59.274;17.974;2024-01-10T09:01:43;102379.97;;;-0.91;100.00
71476;BME280;59286;59.274;17.974;2024-01-10T09:04:09;102377.84;;;-0.88;100.00
71476;BME280;59286;59.274;17.974;2024-01-10T09:06:34;102373.31;;;-0.86;100.00
71476;BME280;59286;59.274;17.974;2024-01-10T09:09:01;102371.50;;;-0.85;100.00
71476;BME280;59286;59.274;17.974;2024-01-10T09:11:26;102362.47;;;-0.81;100.00
71476;BME280;59286;59.274;17.974;2024-01-10T09:13:52;102358.13;;;-0.81;100.00
71476;BME280;59286;59.274;17.974;2024-01-10T09:16:17;102366.13;;;-0.76;100.00
71476;BME280;59286;59.274;17.974;2024-01-10T09:18:45;102364.63;;;-0.70;100.00
71476;BME280;59286;59.274;17.974;2024-01-10T09:21:10;102354.59;;;-0.65;100.00
71476;BME280;59286;59.274;17.974;2024-01-10T09:23:37;102354.44;;;-0.64;100.00
71476;BME280;59286;59.274;17.974;2024-01-10T09:26:02;102353.69;;;-0.58;100.00
71476;BME280;59286;59.274;17.974;2024-01-10T09:28:28;102343.06;;;-0.55;100.00
71476;BME280;59286;59.274;17.974;2024-01-10T09:30:53;102359.00;;;-0.45;100.00
71476;BME280;59286;59.274;17.974;2024-01-10T09:33:19;102349.97;;;-0.41;100.00
71476;BME280;59286;59.274;17.974;2024-01-10T09:35:44;102343.03;;;-0.40;100.00
71476;BME280;59286;59.274;17.974;2024-01-10T09:38:10;102348.53;;;-0.29;100.00
71476;BME280;59286;59.274;17.974;2024-01-10T09:40:36;102348.78;;;-0.24;100.00
71476;BME280;59286;59.274;17.974;2024-01-10T09:43:01;102348.78;;;-0.24;100.00
71476;BME280;59286;59.274;17.974;2024-01-10T09:45:28;102348.59;;;-0.22;100.00
71476;BME280;59286;59.274;17.974;2024-01-10T09:47:57;102343.88;;;-0.19;100.00
71476;BME280;59286;59.274;17.974;2024-01-10T09:50:23;102341.94;;;-0.17;100.00
71476;BME280;59286;59.274;17.974;2024-01-10T09:52:51;102348.00;;;-0.10;100.00
71476;BME280;59286;59.274;17.974;2024-01-10T09:55:21;102346.28;;;-0.03;100.00
71476;BME280;59286;59.274;17.974;2024-01-10T09:57:46;102342.47;;;-0.07;100.00
71476;BME280;59286;59.274;17.974;2024-01-10T10:00:13;102340.13;;;-0.02;100.00
71476;BME280;59286;59.274;17.974;2024-01-10T10:02:41;102336.22;;;0.03;100.00
71476;BME280;59286;59.274;17.974;2024-01-10T10:05:13;102329.97;;;0.12;100.00
71476;BME280;59286;59.274;17.974;2024-01-10T10:07:45;102317.34;;;0.17;100.00
71476;BME280;59286;59.274;17.974;2024-01-10T10:10:10;102308.44;;;0.19;100.00
71476;BME280;59286;59.274;17.974;2024-01-10T10:12:51;102303.28;;;0.19;100.00
71476;BME280;59286;59.274;17.974;2024-01-10T10:15:24;102314.00;;;0.23;100.00
71476;BME280;59286;59.274;17.974;2024-01-10T10:17:52;102314.63;;;0.25;100.00
71476;BME280;59286;59.274;17.974;2024-01-10T10:20:26;102323.06;;;0.33;100.00
71476;BME280;59286;59.274;17.974;2024-01-10T10:23:08;102334.66;;;0.44;100.00
71476;BME280;59286;59.274;17.974;2024-01-10T10:25:45;102319.19;;;0.44;100.00
71476;BME280;59286;59.274;17.974;2024-01-10T10:28:12;102320.59;;;0.46;100.00
71476;BME280;59286;59.274;17.974;2024-01-10T10:30:37;102325.75;;;0.46;100.00
71476;BME280;59286;59.274;17.974;2024-01-10T10:33:03;102320.59;;;0.46;100.00
71476;BME280;59286;59.274;17.974;2024-01-10T10:35:28;102325.59;;;0.54;100.00
71476;BME280;59286;59.274;17.974;2024-01-10T10:37:54;102318.06;;;0.53;100.00
71476;BME280;59286;59.274;17.974;2024-01-10T10:40:20;102320.53;;;0.61;100.00
71476;BME280;59286;59.274;17.974;2024-01-10T10:42:48;102316.19;;;0.68;100.00
71476;BME280;59286;59.274;17.974;2024-01-10T10:45:16;102311.03;;;0.68;100.00
71476;BME280;59286;59.274;17.974;2024-01-10T10:47:46;102303.41;;;0.81;100.00
71476;BME280;59286;59.274;17.974;2024-01-10T10:50:21;102299.19;;;0.73;100.00
71476;BME280;59286;59.274;17.974;2024-01-10T10:52:48;102305.59;;;0.84;100.00
71476;BME280;59286;59.274;17.974;2024-01-10T10:55:15;102307.81;;;0.87;100.00
71476;BME280;59286;59.274;17.974;2024-01-10T10:57:50;102303.88;;;0.91;100.00
71476;BME280;59286;59.274;17.974;2024-01-10T11:00:18;102303.28;;;0.95;100.00
71476;BME280;59286;59.274;17.974;2024-01-10T11:02:45;102296.34;;;0.89;100.00
71476;BME280;59286;59.274;17.974;2024-01-10T11:05:11;102296.50;;;0.88;100.00
71476;BME280;59286;59.274;17.974;2024-01-10T11:07:41;102295.13;;;0.92;100.00
71476;BME280;59286;59.274;17.974;2024-01-10T11:10:37;102305.94;;;1.02;100.00
71476;BME280;59286;59.274;17.974;2024-01-10T11:24:33;102278.16;;;1.04;100.00
71476;BME280;59286;59.274;17.974;2024-01-10T11:27:12;102281.56;;;1.11;100.00
71476;BME280;59286;59.274;17.974;2024-01-10T11:29:38;102290.53;;;1.15;100.00
71476;BME280;59286;59.274;17.974;2024-01-10T11:32:14;102280.56;;;1.12;100.00
71476;BME280;59286;59.274;17.974;2024-01-10T11:34:50;102271.63;;;1.08;100.00
71476;BME280;59286;59.274;17.974;2024-01-10T11:37:15;102266.81;;;1.05;100.00
71476;BME280;59286;59.274;17.974;2024-01-10T11:39:44;102265.25;;;1.04;100.00
71476;BME280;59286;59.274;17.974;2024-01-10T11:42:09;102258.13;;;1.13;100.00
71476;BME280;59286;59.274;17.974;2024-01-10T11:44:46;102259.28;;;1.10;100.00
71476;BME280;59286;59.274;17.974;2024-01-10T11:47:13;102256.97;;;1.15;100.00
71476;BME280;59286;59.274;17.974;2024-01-10T11:49:40;102251.78;;;1.15;100.00
71476;BME280;59286;59.274;17.974;2024-01-10T11:52:05;102260.38;;;1.22;100.00
71476;BME280;59286;59.274;17.974;2024-01-10T11:54:37;102258.19;;;1.26;100.00
71476;BME280;59286;59.274;17.974;2024-01-10T11:57:33;102261.78;;;1.31;100.00
71476;BME280;59286;59.274;17.974;2024-01-10T11:59:58;102259.22;;;1.31;100.00
71476;BME280;59286;59.274;17.974;2024-01-10T12:02:26;102251.06;;;1.28;100.00
71476;BME280;59286;59.274;17.974;2024-01-10T12:04:52;102261.78;;;1.31;100.00
71476;BME280;59286;59.274;17.974;2024-01-10T12:07:18;102268.16;;;1.35;100.00
71476;BME280;59286;59.274;17.974;2024-01-10T12:09:45;102265.38;;;1.37;100.00
71476;BME280;59286;59.274;17.974;2024-01-10T12:12:12;102262.00;;;1.36;100.00
71476;BME280;59286;59.274;17.974;2024-01-10T12:14:39;102265.38;;;1.37;100.00
71476;BME280;59286;59.274;17.974;2024-01-10T12:17:05;102263.41;;;1.39;100.00
71476;BME280;59286;59.274;17.974;2024-01-10T12:19:31;102263.81;;;1.42;100.00
71476;BME280;59286;59.274;17.974;2024-01-10T12:21:57;102256.28;;;1.41;100.00
71476;BME280;59286;59.274;17.974;2024-01-10T12:24:22;102256.88;;;1.49;100.00
71476;BME280;59286;59.274;17.974;2024-01-10T12:26:48;102253.13;;;1.45;100.00
71476;BME280;59286;59.274;17.974;2024-01-10T12:29:17;102256.88;;;1.49;100.00
71476;BME280;59286;59.274;17.974;2024-01-10T12:31:42;102247.97;;;1.52;100.00
71476;BME280;59286;59.274;17.974;2024-01-10T12:34:10;102243.00;;;1.50;100.00
71476;BME280;59286;59.274;17.974;2024-01-10T12:36:36;102240.97;;;1.39;100.00
71476;BME280;59286;59.274;17.974;2024-01-10T12:39:01;102221.84;;;1.27;100.00
71476;BME280;59286;59.274;17.974;2024-01-10T12:41:27;102227.00;;;1.27;100.00